• Join FlightAware (Why Join?)
  • Login
  • US Flag GB Flag 
05:36 EDT


 

Airport Tracker/Info


-or-


 

Live Flight TrackerFlight Track Log ✈ FDX9750 ✈ 10-Feb-2013 ✈ KMCO - KOAK

Flight Track Log - Related Links

Times and Time Zones

All times are in EST time to prevent confusion due to time zone crossing. See the FDX9750 flight status page for this flight to view local times or setup timezone preferences in your user account.

Time Position Orientation Groundspeed Altitude Reporting Facility
EST Latitude Longitude Course Direction KTS MPH feet Rate Location/Type
08:22 28.4320 -81.3220 180° South  Level FlightAware
08:23 28.4010 -81.3320 196° South 1,900 1,860 Climbing FlightAware
08:23 28.3900 -81.3380 206° Southwest 2,200 1,800 Climbing FlightAware
08:23 28.3680 -81.3520 209° Southwest 3,200 1,800 Climbing FlightAware
08:24 28.3560 -81.3670 228° Southwest 4,300 1,800 Climbing FlightAware
08:24 28.3460 -81.3990 250° West 6,100 1,740 Climbing FlightAware
08:25 28.3540 -81.4420 282° West 8,000 1,620 Climbing FlightAware
08:25 28.3980 -81.4840 320° Northwest 10,900 1,500 Climbing FlightAware
08:26 28.4570 -81.4990 347° North 12,200 1,320 Climbing FlightAware
08:27 28.5280 -81.5050 356° North 14,200 1,260 Climbing FlightAware
08:27 28.6060 -81.5210 350° North 16,900 1,140 Climbing FlightAware
08:28 28.6790 -81.5380 348° North 19,100 900 Climbing FlightAware
08:29 28.7560 -81.5550 349° North 20,700 660 Climbing FlightAware
08:30 28.8430 -81.5750 349° North 22,800 480 Climbing FlightAware
08:30 28.9200 -81.5930 348° North 23,000 120 Climbing FlightAware
08:31 28.9930 -81.6100 348° North 23,000 120 Level FlightAware
08:32 28.7350 -81.5510 169° South 20,200 120 Descending FlightAware
08:32 28.7850 -81.5620 349° North 21,500 1,080 Climbing FlightAware
08:33 29.2230 -81.6620 349° North 23,000 840 Climbing FlightAware
08:34 29.3300 -81.6870 348° North 23,000 360 Level FlightAware
08:35 29.4428 -81.7169 349° North 428 493 23,700 660 Climbing Jacksonville Center
08:37 29.6580 -81.7620 349° North 25,000 600 Climbing FlightAware
08:37 29.6792 -81.7714 357° North 428 493 25,000  Level Jacksonville Center
08:38 29.7942 -81.7964 North 428 493 25,000  Level Jacksonville Center
08:39 29.9072 -81.8239 338° Northwest 423 487 25,000  Level Jacksonville Center
08:40 30.0910 -81.8620 349° North 25,000  Level FlightAware
08:41 30.1640 -81.8780 349° North 25,000  Level FlightAware
08:42 30.2490 -81.8830 357° North 25,000  Level FlightAware
08:42 30.3370 -81.8740 North 25,000  Level FlightAware
08:43 30.4010 -81.8760 358° North 25,000  Level FlightAware
08:44 30.4730 -81.9100 338° Northwest 25,000  Level FlightAware
08:45 30.5650 -81.9900 323° Northwest 25,000  Level FlightAware
08:45 30.6300 -82.0400 327° Northwest 25,000  Level FlightAware
08:46 30.6920 -82.0880 326° Northwest 25,000  Level FlightAware
08:47 30.7560 -82.1360 327° Northwest 25,000  Level FlightAware
08:47 30.8210 -82.1850 327° Northwest 25,000 60 Level FlightAware
08:48 30.8870 -82.2350 327° Northwest 25,000 60 Level FlightAware
08:49 30.9820 -82.3080 327° Northwest 25,000 60 Level FlightAware
08:50 31.0480 -82.3590 326° Northwest 25,000 60 Level FlightAware
08:50 31.1120 -82.4080 327° Northwest 25,000 60 Level FlightAware
08:51 31.1750 -82.4570 326° Northwest 25,000 60 Level FlightAware
08:52 31.2410 -82.5070 327° Northwest 25,000 60 Level FlightAware
08:53 31.3350 -82.5800 326° Northwest 25,000 60 Level FlightAware
08:53 31.3980 -82.6290 326° Northwest 25,000 60 Level FlightAware
08:54 31.4630 -82.6790 327° Northwest 25,000 60 Level FlightAware
08:55 31.5260 -82.7280 326° Northwest 25,000 60 Level FlightAware
08:56 31.6230 -82.8040 326° Northwest 25,000 120 Level FlightAware
08:56 31.6850 -82.8520 327° Northwest 25,000 120 Level FlightAware
08:57 31.7490 -82.9020 326° Northwest 25,000 120 Level FlightAware
08:58 31.8460 -82.9780 326° Northwest 25,100 120 Climbing FlightAware
08:59 31.9140 -83.0320 326° Northwest 25,500 180 Climbing FlightAware
09:00 31.9800 -83.0850 326° Northwest 25,900 60 Climbing FlightAware
09:00 32.0430 -83.1370 325° Northwest 26,000  Climbing FlightAware
09:01 32.1110 -83.1930 325° Northwest 26,000  Level FlightAware
09:02 32.1790 -83.2480 326° Northwest 26,000  Level FlightAware
09:02 32.2410 -83.2990 325° Northwest 26,000  Level FlightAware
09:03 32.3100 -83.3560 325° Northwest 26,000  Level FlightAware
09:03 32.3144 -83.3631 325° Northwest 407 468 26,000  Level Atlanta Center
09:04 32.4140 -83.4410 325° Northwest 26,000  Level FlightAware
09:05 32.5050 -83.5170 325° Northwest 26,000  Level FlightAware
09:06 32.5750 -83.5750 325° Northwest 26,000  Level FlightAware
09:07 32.6780 -83.6600 325° Northwest 26,000  Level FlightAware
09:08 32.7410 -83.7120 325° Northwest 26,000  Level FlightAware
09:08 32.8100 -83.7700 325° Northwest 26,000  Level FlightAware
09:09 32.8820 -83.8300 325° Northwest 26,000  Level FlightAware
09:10 32.9490 -83.8860 325° Northwest 26,000  Level FlightAware
09:11 33.0120 -83.9380 325° Northwest 26,000  Level FlightAware
09:12 33.1070 -84.0180 325° Northwest 26,000  Level FlightAware
09:12 33.1700 -84.0710 325° Northwest 26,000  Level FlightAware
09:13 33.2450 -84.1350 324° Northwest 26,000  Level FlightAware
09:14 33.3160 -84.1950 325° Northwest 26,000  Level FlightAware
09:14 33.3800 -84.2490 325° Northwest 26,000  Level FlightAware
09:15 33.4430 -84.3020 325° Northwest 26,000  Level FlightAware
09:16 33.5030 -84.3540 324° Northwest 26,000  Level FlightAware
09:17 33.5950 -84.4320 325° Northwest 26,000  Level FlightAware
09:17 33.6650 -84.4920 325° Northwest 26,000  Level FlightAware
09:19 33.7630 -84.5760 325° Northwest 26,000  Level FlightAware
09:19 33.8235 -84.6272 325° Northwest 419 482 26,000  Level FlightAware ADS-B
09:20 33.8708 -84.6679 324° Northwest 423 487 26,000  Level FlightAware ADS-B
09:20 33.9175 -84.7080 325° Northwest 415 478 26,000  Level FlightAware ADS-B
09:21 33.9642 -84.7482 324° Northwest 424 488 26,000  Level FlightAware ADS-B
09:21 34.0109 -84.7885 324° Northwest 409 471 26,000  Level FlightAware ADS-B
09:22 34.0647 -84.8349 324° Northwest 429 494 26,000  Level FlightAware ADS-B
09:22 34.1112 -84.8752 324° Northwest 418 481 26,000  Level FlightAware ADS-B
09:23 34.1601 -84.9174 324° Northwest 418 481 26,000  Level FlightAware ADS-B
09:23 34.2066 -84.9578 324° Northwest 403 464 26,000  Level FlightAware ADS-B
09:24 34.2581 -84.9892 333° Northwest 416 479 26,000  Level FlightAware ADS-B
09:24 34.3110 -85.0184 335° Northwest 420 483 26,000  Level FlightAware ADS-B
09:25 34.3647 -85.0481 335° Northwest 420 483 26,000  Level FlightAware ADS-B
09:25 34.4176 -85.0774 335° Northwest 421 484 26,000  Level FlightAware ADS-B
09:26 34.4724 -85.1077 335° Northwest 422 486 26,000  Level FlightAware ADS-B
09:26 34.5254 -85.1366 336° Northwest 420 483 26,000  Level FlightAware ADS-B
09:27 34.5784 -85.1658 336° Northwest 424 488 26,000  Level FlightAware ADS-B
09:27 34.6334 -85.1959 336° Northwest 422 486 26,000  Level FlightAware ADS-B
09:28 34.6885 -85.2258 336° Northwest 423 487 26,000  Level FlightAware ADS-B
09:28 34.7472 -85.2577 336° Northwest 429 494 26,000  Level FlightAware ADS-B
09:29 34.8025 -85.2877 336° Northwest 422 486 26,000  Level FlightAware ADS-B
09:29 34.8566 -85.3246 331° Northwest 420 483 26,000  Level FlightAware ADS-B
09:30 34.9017 -85.3698 321° Northwest 418 481 26,000  Level FlightAware ADS-B
09:30 34.9460 -85.4158 320° Northwest 425 489 26,000  Level FlightAware ADS-B
09:31 34.9903 -85.4618 320° Northwest 421 484 26,000  Level FlightAware ADS-B
09:31 35.0345 -85.5080 319° Northwest 422 486 26,000  Level FlightAware ADS-B
09:32 35.0781 -85.5536 319° Northwest 400 460 26,000  Level FlightAware ADS-B
09:32 35.1226 -85.6001 319° Northwest 429 494 26,000  Level FlightAware ADS-B
09:33 35.1676 -85.6473 319° Northwest 414 476 26,000  Level FlightAware ADS-B
09:33 35.2134 -85.6958 319° Northwest 413 475 26,000  Level FlightAware ADS-B
09:34 35.2577 -85.7425 319° Northwest 425 489 26,000  Level FlightAware ADS-B
09:34 35.3018 -85.7890 319° Northwest 408 470 26,000  Level FlightAware ADS-B
09:35 35.3466 -85.8364 319° Northwest 413 475 26,000  Level FlightAware ADS-B
09:36 35.3949 -85.8873 319° Northwest 400 460 26,000  Level FlightAware ADS-B
09:36 35.4445 -85.9400 319° Northwest 411 473 26,000  Level FlightAware ADS-B
09:37 35.4883 -85.9867 319° Northwest 410 472 26,000  Level FlightAware ADS-B
09:37 35.5264 -86.0306 319° Northwest 412 474 26,000  Level Memphis Center
09:38 35.6256 -86.1300 319° Northwest 412 474 26,000  Level Memphis Center
09:40 35.7880 -86.3070 319° Northwest 26,000  Level FlightAware ADS-B
09:41 35.8410 -86.3640 319° Northwest 26,000  Level FlightAware
09:42 35.9070 -86.4350 319° Northwest 26,000  Level FlightAware
09:42 35.9650 -86.4980 319° Northwest 26,000  Level FlightAware
09:43 36.0230 -86.5610 319° Northwest 26,000  Level FlightAware
09:44 36.0890 -86.6320 319° Northwest 26,000  Level FlightAware
09:44 36.1520 -86.6910 323° Northwest 26,000  Level FlightAware
09:45 36.2320 -86.7430 332° Northwest 26,000  Level FlightAware
09:46 36.3030 -86.7830 336° Northwest 26,000  Level FlightAware
09:46 36.3603 -86.8214 334° Northwest 430 495 26,000  Level Memphis Center
09:48 36.5020 -86.9000 335° Northwest 26,000  Level FlightAware
09:49 36.6710 -87.0000 335° Northwest 26,000  Level FlightAware
09:49 36.6825 -87.0089 334° Northwest 434 499 26,000  Level Memphis Center
09:51 36.8650 -87.1160 334° Northwest 26,000  Level FlightAware
09:52 37.0250 -87.2110 335° Northwest 26,000  Level FlightAware
09:53 37.0980 -87.2550 334° Northwest 26,000  Level FlightAware
09:54 37.1720 -87.3000 334° Northwest 26,000  Level FlightAware
09:54 37.2530 -87.3490 334° Northwest 26,000  Level FlightAware
09:55 37.3550 -87.4110 334° Northwest 26,000  Level FlightAware
09:56 37.4270 -87.4550 334° Northwest 26,000  Level FlightAware
09:57 37.5010 -87.5000 334° Northwest 26,000  Level FlightAware
09:57 37.5770 -87.5460 334° Northwest 26,000  Level FlightAware
09:58 37.6500 -87.5910 334° Northwest 26,000  Level FlightAware
09:59 37.7220 -87.6350 334° Northwest 26,000  Level FlightAware
10:00 37.8310 -87.7020 334° Northwest 26,000  Level FlightAware
10:00 37.9040 -87.7480 334° Northwest 26,000  Level FlightAware
10:01 38.0040 -87.8370 325° Northwest 26,000  Level FlightAware
10:02 38.0660 -87.8960 323° Northwest 26,000  Level FlightAware
10:03 38.1290 -87.9570 323° Northwest 26,000  Level FlightAware
10:04 38.2540 -88.0790 323° Northwest 26,000  Level FlightAware
10:05 38.3200 -88.1440 322° Northwest 26,000  Level FlightAware
10:06 38.4170 -88.2400 322° Northwest 26,000  Level FlightAware
10:06 38.4790 -88.3010 322° Northwest 26,000  Level FlightAware
10:07 38.5590 -88.3800 322° Northwest 26,000  Level FlightAware
10:08 38.6340 -88.4530 323° Northwest 26,000  Level FlightAware
10:09 38.6970 -88.5160 322° Northwest 26,000  Level FlightAware
10:09 38.7570 -88.5760 322° Northwest 26,000  Level FlightAware
10:10 38.8460 -88.6650 322° Northwest 26,000  Level FlightAware
10:11 38.9200 -88.7390 322° Northwest 26,000  Level FlightAware
10:12 38.9840 -88.8040 322° Northwest 26,000  Level FlightAware
10:12 39.0390 -88.8590 322° Northwest 26,000  Level FlightAware
10:13 39.1090 -88.9290 322° Northwest 26,000  Level FlightAware
10:14 39.2090 -89.0310 322° Northwest 26,000  Level FlightAware
10:15 39.2550 -89.1090 307° West 26,000  Level FlightAware
10:16 39.2880 -89.1910 297° West 26,000  Level FlightAware
10:16 39.3220 -89.2780 297° West 26,000  Level FlightAware
10:17 39.3580 -89.3700 297° West 26,000  Level FlightAware
10:18 39.3910 -89.4550 297° West 26,000  Level FlightAware
10:18 39.4390 -89.5780 297° West 26,000  Level FlightAware
10:19 39.4730 -89.6650 297° West 26,000  Level FlightAware
10:19 39.4822 -89.6878 296° West 417 480 26,000  Level Kansas City Center
10:21 39.5540 -89.8730 297° West 26,000  Level FlightAware
10:21 39.5880 -89.9610 297° West 26,000  Level FlightAware
10:22 39.6410 -90.1020 296° West 26,000  Level FlightAware
10:23 39.6880 -90.2230 297° West 26,000  Level FlightAware
10:24 39.7240 -90.3190 296° West 26,000  Level FlightAware
10:25 39.7620 -90.4180 297° West 26,000  Level FlightAware
10:25 39.8000 -90.5190 296° West 26,000  Level FlightAware
10:26 39.8330 -90.6080 296° West 26,000  Level FlightAware
10:27 39.8690 -90.7030 296° West 26,000  Level FlightAware
10:28 39.9230 -90.8480 296° West 26,000  Level FlightAware
10:28 39.9580 -90.9420 296° West 26,000  Level FlightAware
10:29 40.0090 -91.0780 296° West 26,000  Level FlightAware
10:30 40.0480 -91.1860 295° West 26,000  Level FlightAware
10:31 40.0820 -91.2770 296° West 26,000  Level FlightAware
10:31 40.1170 -91.3710 296° West 26,000  Level FlightAware
10:32 40.1490 -91.4610 295° West 26,000  Level FlightAware
10:33 40.1840 -91.5560 296° West 26,000  Level FlightAware
10:33 40.2160 -91.6450 295° West 26,000  Level FlightAware
10:34 40.2510 -91.7400 296° West 26,000  Level FlightAware
10:35 40.2830 -91.8300 295° West 26,000  Level FlightAware
10:36 40.3320 -91.9670 295° West 26,000  Level FlightAware
10:36 40.3640 -92.0540 296° West 26,000  Level FlightAware
10:38 40.4240 -92.2230 295° West 26,000  Level FlightAware
10:38 40.4403 -92.2706 295° West 408 470 26,000  Level Chicago Center
10:39 40.4778 -92.3767 295° West 409 471 26,000  Level Kansas City Center
10:40 40.5247 -92.5122 295° West 409 471 26,000  Level Kansas City Center
10:41 40.5731 -92.6489 295° West 411 473 26,000  Level Kansas City Center
10:42 40.6192 -92.7806 295° West 414 476 26,000  Level Kansas City Center
10:42 40.6383 -92.8344 295° West 415 478 26,000  Level Chicago Center
10:43 40.6675 -92.9172 295° West 415 478 26,000  Level Minneapolis Center
10:44 40.7136 -93.0511 294° West 411 473 26,000  Level Minneapolis Center
10:45 40.7569 -93.1839 293° West 404 465 26,000  Level Minneapolis Center
10:46 40.7436 -93.3128 262° West 367 422 26,000  Level Minneapolis Center
10:47 40.7228 -93.4367 258° West 354 407 26,000  Level Minneapolis Center
10:48 40.7014 -93.5578 257° West 346 398 26,000  Level Minneapolis Center
10:49 40.6781 -93.6833 256° West 351 404 26,000  Level Minneapolis Center
10:50 40.6533 -93.8306 258° West 349 402 26,000  Level Minneapolis Center
10:51 40.6306 -93.9558 257° West 352 405 26,000  Level Minneapolis Center
10:52 40.6064 -94.0825 256° West 355 409 26,000  Level Minneapolis Center
10:53 40.5839 -94.2083 257° West 357 411 26,000  Level Minneapolis Center
10:54 40.5606 -94.3322 256° West 354 407 26,000  Level Minneapolis Center
10:55 40.5392 -94.4547 257° West 350 403 26,000  Level Minneapolis Center
10:56 40.5175 -94.5747 257° West 347 399 26,000  Level Minneapolis Center
10:57 40.4897 -94.7200 256° West 344 396 26,000  Level Minneapolis Center
10:58 40.4678 -94.8392 256° West 341 392 26,000  Level Minneapolis Center
10:59 40.4408 -94.9839 256° West 340 391 26,000  Level Minneapolis Center
11:00 40.4164 -95.1078 256° West 344 396 26,000  Level Minneapolis Center
11:01 40.3931 -95.2311 256° West 346 398 26,000  Level Minneapolis Center
11:02 40.3692 -95.3556 256° West 350 403 26,000  Level Minneapolis Center
11:03 40.3450 -95.4803 256° West 352 405 26,000  Level Minneapolis Center
11:04 40.3206 -95.6050 256° West 352 405 26,000  Level Minneapolis Center
11:05 40.2956 -95.7306 255° West 354 407 26,000  Level Minneapolis Center
11:06 40.2717 -95.8575 256° West 356 410 26,000  Level Minneapolis Center
11:07 40.2461 -95.9844 255° West 358 412 26,000  Level Minneapolis Center
11:08 40.2203 -96.1122 255° West 360 414 26,000  Level Minneapolis Center
11:10 40.2008 -96.2747 261° West 375 432 26,000  Level Minneapolis Center
11:11 40.2056 -96.4128 273° West 379 436 26,000  Level Minneapolis Center
11:12 40.2075 -96.5542 271° West 386 444 26,000  Level Minneapolis Center
11:13 40.2100 -96.6967 271° West 389 448 26,000  Level Minneapolis Center
11:14 40.2117 -96.8383 271° West 389 448 26,000  Level Minneapolis Center
11:15 40.2136 -96.9825 271° West 393 452 26,000  Level Minneapolis Center
11:16 40.2158 -97.1253 271° West 393 452 26,000  Level Minneapolis Center
11:17 40.2172 -97.2656 271° West 388 447 26,000  Level Minneapolis Center
11:18 40.2189 -97.4228 271° West 392 451 26,000  Level Minneapolis Center
11:19 40.2203 -97.5686 271° West 397 457 26,000  Level Minneapolis Center
11:20 40.2214 -97.7161 271° West 401 461 26,000  Level Minneapolis Center
11:21 40.2222 -97.8644 270° West 404 465 26,000  Level Minneapolis Center
11:22 40.2233 -98.0128 271° West 406 467 26,000  Level Minneapolis Center
11:23 40.2228 -98.1578 270° West 402 463 26,000  Level Minneapolis Center
11:24 40.2236 -98.3042 270° West 401 461 26,000  Level Minneapolis Center
11:25 40.2231 -98.4519 270° West 402 463 26,000  Level Minneapolis Center
11:26 40.2228 -98.6022 270° West 407 468 26,000  Level Minneapolis Center
11:27 40.2236 -98.7519 270° West 409 471 26,000  Level Minneapolis Center
11:28 40.2231 -98.9017 270° West 410 472 26,000  Level Minneapolis Center
11:28 40.2225 -98.9950 270° West 415 478 26,000  Level Denver Center
11:29 40.2217 -99.1450 270° West 413 475 26,000  Level Denver Center
11:30 40.2208 -99.2969 270° West 414 476 26,000  Level Denver Center
11:32 40.2194 -99.4786 269° West 415 478 26,000  Level Denver Center
11:33 40.2186 -99.6000 270° West 415 478 26,000  Level Denver Center
11:34 40.2156 -99.7828 269° West 417 480 26,000  Level Denver Center
11:35 40.2150 -99.9083 270° West 420 483 26,000  Level Denver Center
11:36 40.2122 -100.1044 269° West 422 486 26,000  Level Denver Center
11:37 40.2103 -100.2286 269° West 424 488 26,000  Level Denver Center
11:38 40.2081 -100.4019 269° West 425 489 26,000  Level Denver Center
11:39 40.2050 -100.5731 269° West 422 486 26,000  Level Denver Center
11:40 40.1997 -100.6958 267° West 422 486 26,000  Level Denver Center
11:41 40.1864 -100.8919 265° West 423 487 26,000  Level Denver Center
11:42 40.1756 -101.0644 265° West 424 488 26,000  Level Denver Center
11:43 40.1639 -101.2372 265° West 425 489 26,000  Level Denver Center
11:44 40.1544 -101.3861 265° West 427 491 26,000  Level Denver Center
11:45 40.1442 -101.5336 264° West 426 490 26,000  Level Denver Center
11:46 40.1325 -101.7075 264° West 428 493 26,000  Level Denver Center
11:48 40.1154 -101.9590 265° West 412 474 26,000  Level FlightAware ADS-B
11:48 40.1095 -102.0430 265° West 416 479 26,000  Level FlightAware ADS-B
11:49 40.1037 -102.1230 265° West 432 497 26,000  Level FlightAware ADS-B
11:49 40.0982 -102.2000 265° West 408 470 26,000  Level FlightAware ADS-B
11:50 40.0924 -102.2780 264° West 424 488 26,000  Level FlightAware ADS-B
11:50 40.0867 -102.3550 264° West 428 493 26,000  Level FlightAware ADS-B
11:51 40.0809 -102.4330 264° West 428 493 26,000  Level FlightAware ADS-B
11:51 40.0751 -102.5110 264° West 436 502 26,000  Level FlightAware ADS-B
11:52 40.0690 -102.5880 264° West 436 502 26,000  Level FlightAware ADS-B
11:52 40.0632 -102.6660 264° West 439 505 26,000  Level FlightAware ADS-B
11:53 40.0570 -102.7460 264° West 433 498 26,000  Level FlightAware ADS-B
11:53 40.0507 -102.8260 264° West 423 487 26,000  Level FlightAware ADS-B
11:54 40.0445 -102.9040 264° West 433 498 26,000  Level FlightAware ADS-B
11:54 40.0381 -102.9830 264° West 433 498 26,000  Level FlightAware ADS-B
11:55 40.0319 -103.0620 264° West 413 475 26,000  Level FlightAware ADS-B
11:55 40.0252 -103.1430 264° West 442 509 26,000  Level FlightAware ADS-B
11:56 40.0189 -103.2200 264° West 426 490 26,000  Level FlightAware ADS-B
11:56 40.0125 -103.2990 264° West 434 499 26,000  Level FlightAware ADS-B
11:57 40.0060 -103.3760 264° West 436 502 26,000  Level FlightAware ADS-B
11:57 39.9997 -103.4530 264° West 425 489 26,000  Level FlightAware ADS-B
11:58 39.9930 -103.5320 264° West 442 509 26,000  Level FlightAware ADS-B
11:58 39.9863 -103.6100 264° West 422 486 26,000  Level FlightAware ADS-B
11:59 39.9792 -103.6920 264° West 438 504 26,000  Level FlightAware ADS-B
11:59 39.9726 -103.7700 264° West 436 502 26,000  Level FlightAware ADS-B
12:00 39.9659 -103.8470 264° West 422 486 26,000  Level FlightAware ADS-B
12:00 39.9588 -103.9270 263° West 430 495 26,000  Level FlightAware ADS-B
12:01 39.9520 -104.0050 264° West 441 507 26,000  Level FlightAware ADS-B
12:01 39.9446 -104.0860 263° West 436 502 26,000  Level FlightAware ADS-B
12:02 39.9375 -104.1650 263° West 438 504 26,000  Level FlightAware ADS-B
12:02 39.9305 -104.2420 263° West 438 504 26,000  Level FlightAware ADS-B
12:03 39.9233 -104.3210 263° West 431 496 26,000  Level FlightAware ADS-B
12:03 39.9156 -104.4050 263° West 430 495 26,000  Level FlightAware ADS-B
12:04 39.9082 -104.4840 263° West 434 499 26,000  Level FlightAware ADS-B
12:04 39.9010 -104.5610 263° West 440 506 26,000  Level FlightAware ADS-B
12:05 39.8972 -104.6410 266° West 436 502 26,000  Level FlightAware ADS-B
12:06 39.9008 -104.7210 273° West 417 480 26,000  Level FlightAware ADS-B
12:06 39.9065 -104.8020 275° West 437 503 26,000  Level FlightAware ADS-B
12:07 39.9118 -104.8800 275° West 426 490 26,000  Level FlightAware ADS-B
12:07 39.9168 -104.9600 275° West 425 489 26,000  Level FlightAware ADS-B
12:08 39.9218 -105.0370 275° West 425 489 26,000  Level FlightAware ADS-B
12:08 39.9271 -105.1220 275° West 421 484 26,000  Level FlightAware ADS-B
12:09 39.9248 -105.2370 269° West 433 498 26,000  Level FlightAware ADS-B
12:10 39.9174 -105.3720 266° West 426 490 26,000  Level FlightAware ADS-B
12:10 39.9113 -105.4820 266° West 415 478 26,000  Level FlightAware ADS-B
12:11 39.9065 -105.5700 266° West 409 471 26,000  Level FlightAware ADS-B
12:12 39.9010 -105.6690 266° West 433 498 26,000  Level FlightAware ADS-B
12:12 39.8957 -105.7570 266° West 419 482 26,000  Level FlightAware ADS-B
12:13 39.8905 -105.8500 266° West 424 488 26,000  Level FlightAware ADS-B
12:13 39.8859 -105.9300 266° West 421 484 26,000  Level FlightAware ADS-B
12:14 39.8790 -106.0400 265° West 430 495 26,000  Level FlightAware ADS-B
12:15 39.8742 -106.1170 265° West 427 491 26,000  Level FlightAware ADS-B
12:15 39.8680 -106.2140 265° West 26,000  Level FlightAware
12:15 39.8660 -106.2500 266° West 430 495 26,000  Level FlightAware ADS-B
12:16 39.8579 -106.3770 265° West 433 498 26,000  Level FlightAware ADS-B
12:17 39.8483 -106.5300 265° West 431 496 26,000  Level FlightAware ADS-B
12:18 39.8431 -106.6072 265° West 432 497 26,000  Level Denver Center
12:19 39.8322 -106.7622 264° West 433 498 26,000  Level Denver Center
12:20 39.8219 -106.9164 265° West 433 498 26,000  Level Denver Center
12:21 39.8089 -107.1008 265° West 431 496 26,000  Level Denver Center
12:23 39.7930 -107.3330 265° West 26,000  Level FlightAware
12:23 39.7850 -107.4530 265° West 26,000  Level FlightAware
12:24 39.7760 -107.5670 264° West 26,000  Level FlightAware
12:25 39.7680 -107.6720 264° West 26,000  Level FlightAware
12:25 39.7610 -107.7760 265° West 26,000  Level FlightAware
12:26 39.7510 -107.8940 264° West 26,000  Level FlightAware
12:27 39.7440 -107.9950 265° West 26,000  Level FlightAware
12:27 39.7350 -108.1050 264° West 26,000  Level FlightAware
12:28 39.7260 -108.2200 264° West 26,000  Level FlightAware
12:29 39.7180 -108.3240 264° West 26,000  Level FlightAware
12:29 39.7090 -108.4270 264° West 26,000  Level FlightAware
12:30 39.7010 -108.5330 264° West 26,000  Level FlightAware
12:31 39.6900 -108.6560 263° West 26,000  Level FlightAware
12:32 39.6820 -108.7550 264° West 26,000  Level FlightAware
12:32 39.6710 -108.8850 264° West 26,000  Level FlightAware
12:33 39.6620 -108.9880 264° West 26,000  Level FlightAware
12:34 39.6510 -109.1120 263° West 26,000  Level FlightAware
12:34 39.6420 -109.2160 264° West 26,000  Level FlightAware
12:35 39.6340 -109.3090 264° West 26,000  Level FlightAware
12:36 39.6230 -109.4260 263° West 26,000  Level FlightAware
12:37 39.6130 -109.5370 263° West 26,000  Level FlightAware
12:37 39.6030 -109.6430 263° West 26,000  Level FlightAware
12:38 39.5920 -109.7630 263° West 26,000  Level FlightAware
12:39 39.5840 -109.8550 264° West 26,000  Level FlightAware
12:39 39.5730 -109.9680 263° West 26,000  Level FlightAware
12:40 39.5610 -110.0890 263° West 26,000  Level FlightAware
12:41 39.5530 -110.1820 264° West 26,000  Level FlightAware
12:41 39.5420 -110.2910 263° West 26,000  Level FlightAware
12:42 39.5310 -110.4050 263° West 26,000  Level FlightAware
12:43 39.5200 -110.5110 262° West 26,000  Level FlightAware
12:43 39.5125 -110.6036 262° West 434 499 26,000  Level Salt Lake Center
12:45 39.4947 -110.7758 262° West 433 498 26,000  Level Salt Lake Center
12:46 39.4800 -110.9231 263° West 432 497 26,000  Level Salt Lake Center
12:47 39.4639 -111.0694 262° West 431 496 26,000  Level Salt Lake Center
12:48 39.4461 -111.2408 262° West 430 495 26,000  Level Salt Lake Center
12:49 39.4297 -111.3931 262° West 430 495 26,000  Level Salt Lake Center
12:50 39.4133 -111.5464 262° West 430 495 26,000  Level Salt Lake Center
12:51 39.3964 -111.6997 262° West 431 496 26,000  Level Salt Lake Center
12:52 39.3792 -111.8539 262° West 432 497 26,000  Level Salt Lake Center
12:53 39.3611 -112.0094 262° West 436 502 26,000  Level Salt Lake Center
12:54 39.3444 -112.1661 262° West 438 504 26,000  Level Salt Lake Center
12:55 39.3225 -112.3533 261° West 440 506 26,000  Level Salt Lake Center
12:56 39.3039 -112.5100 261° West 441 507 26,000  Level Salt Lake Center
12:57 39.2750 -112.6664 257° West 439 505 26,000  Level Salt Lake Center
12:58 39.2458 -112.8169 256° West 436 502 26,000  Level Salt Lake Center
12:59 39.2175 -112.9722 257° West 441 507 26,000  Level Salt Lake Center
13:00 39.1886 -113.1253 256° West 441 507 26,000  Level Salt Lake Center
13:01 39.1600 -113.2800 257° West 443 510 26,000  Level Salt Lake Center
13:02 39.1311 -113.4381 257° West 449 517 26,000  Level Salt Lake Center
13:03 39.0942 -113.6242 256° West 449 517 26,000  Level Salt Lake Center
13:04 39.0647 -113.7781 256° West 449 517 26,000  Level Salt Lake Center
13:05 39.0358 -113.9292 256° West 442 509 26,000  Level Salt Lake Center
13:06 39.0064 -114.0811 256° West 440 506 26,000  Level Salt Lake Center
13:07 38.9769 -114.2317 256° West 439 505 26,000  Level Salt Lake Center
13:08 38.9469 -114.3811 256° West 437 503 26,000  Level Salt Lake Center
13:09 38.9175 -114.5306 256° West 434 499 26,000  Level Salt Lake Center
13:10 38.8867 -114.6811 255° West 436 502 26,000  Level Salt Lake Center
13:11 38.8492 -114.8639 255° West 441 507 26,000  Level Salt Lake Center
13:12 38.8175 -115.0161 255° West 442 509 26,000  Level Salt Lake Center
13:13 38.7867 -115.1675 255° West 442 509 26,000  Level Salt Lake Center
13:14 38.7550 -115.3183 255° West 441 507 26,000  Level Salt Lake Center
13:15 38.7192 -115.4900 255° West 446 513 26,000  Level Salt Lake Center
13:16 38.6864 -115.6461 255° West 452 520 26,000  Level Salt Lake Center
13:17 38.6536 -115.8025 255° West 454 522 26,000  Level Salt Lake Center
13:18 38.6203 -115.9586 255° West 455 524 26,000  Level Salt Lake Center
13:19 38.5869 -116.1156 255° West 457 526 26,000  Level Salt Lake Center
13:20 38.5664 -116.2100 254° West 458 527 26,000  Level Oakland Center
13:21 38.5322 -116.3667 254° West 458 527 26,000  Level Oakland Center
13:21 38.5186 -116.4292 254° West 458 527 26,000  Level Salt Lake Center
13:22 38.4839 -116.5861 254° West 459 528 26,000  Level Salt Lake Center
13:23 38.4628 -116.6803 254° West 460 529 26,000  Level Oakland Center
13:24 38.4281 -116.8367 254° West 460 529 26,000  Level Oakland Center
13:25 38.3858 -117.0250 254° West 463 533 26,000  Level Oakland Center
13:25 38.3719 -117.0867 254° West 462 532 26,000  Level Salt Lake Center
13:26 38.3508 -117.1792 254° West 461 531 26,000  Level Oakland Center
13:27 38.3219 -117.3358 257° West 456 525 26,000  Level Oakland Center
13:28 38.3031 -117.4858 261° West 445 512 26,000  Level Oakland Center
13:29 38.2847 -117.6394 261° West 444 511 26,000  Level Oakland Center
13:30 38.2653 -117.7931 261° West 443 510 26,000  Level Oakland Center
13:31 38.2453 -117.9481 261° West 444 511 26,000  Level Oakland Center
13:32 38.2244 -118.1131 261° West 446 513 26,000  Level Oakland Center
13:33 38.2044 -118.2683 261° West 445 512 26,000  Level Oakland Center
13:34 38.1842 -118.4244 261° West 445 512 26,000  Level Oakland Center
13:35 38.1628 -118.5803 260° West 447 514 26,000  Level Oakland Center
13:36 38.1414 -118.7364 260° West 447 514 26,000  Level Oakland Center
13:37 38.1194 -118.9119 260° West 445 512 26,000  Level Oakland Center
13:38 38.0975 -119.0656 259° West 444 511 26,000 -900 Level Oakland Center
13:40 38.0660 -119.2960 261° West 26,000 -960 Level FlightAware
13:40 38.0510 -119.4020 260° West 26,000 -1,020 Level FlightAware
13:41 38.0320 -119.5330 260° West 26,000 -1,020 Level FlightAware
13:42 38.0130 -119.6710 260° West 25,400 -1,080 Descending FlightAware
13:43 37.9980 -119.7730 259° West 24,900 -1,080 Descending FlightAware
13:44 37.9690 -119.9720 260° West 24,100 -1,080 Descending FlightAware
13:45 37.9450 -120.1390 260° West 23,100 -1,140 Descending FlightAware
13:46 37.9290 -120.2440 259° West 22,300 -1,140 Descending FlightAware
13:47 37.9150 -120.3420 260° West 21,900 -1,140 Descending FlightAware
13:47 37.9020 -120.4290 259° West 21,600 -1,140 Descending FlightAware
13:48 37.8870 -120.5300 259° West 21,300 -1,200 Descending FlightAware
13:49 37.8720 -120.6280 259° West 20,900 -1,200 Descending FlightAware
13:49 37.8620 -120.7270 263° West 20,500 -1,260 Descending FlightAware
13:50 37.8560 -120.8240 266° West 19,700 -1,260 Descending FlightAware
13:51 37.8480 -120.9600 266° West 17,900 -1,260 Descending FlightAware
13:52 37.8420 -121.0520 265° West 16,500 -1,200 Descending FlightAware
13:52 37.8360 -121.1390 265° West 15,100 -1,200 Descending FlightAware
13:53 37.8190 -121.2180 255° West 13,700 -1,140 Descending FlightAware
13:54 37.7770 -121.3350 246° West 12,000 -1,080 Descending FlightAware
13:55 37.7530 -121.4010 245° Southwest 11,300 -1,020 Descending FlightAware
13:55 37.7280 -121.4710 246° West 10,400 -1,020 Descending FlightAware
13:56 37.7060 -121.5340 246° West 9,500 -960 Descending FlightAware
13:56 37.6940 -121.5660 245° Southwest 9,100 -960 Descending FlightAware
13:57 37.6720 -121.6280 246° West 8,200 -960 Descending FlightAware
13:58 37.6500 -121.6900 246° West 7,600 -900 Descending FlightAware
13:58 37.6300 -121.7470 246° West 6,900 -900 Descending FlightAware
13:59 37.6210 -121.7760 249° West 6,400 -900 Descending FlightAware
13:59 37.6130 -121.8030 249° West 6,200 -840 Descending FlightAware
13:59 37.6050 -121.8300 250° West 5,900 -840 Descending FlightAware
14:00 37.5850 -121.9040 251° West 5,100 -840 Descending FlightAware
14:01 37.5770 -121.9580 259° West 4,100 -840 Descending FlightAware
14:02 37.5690 -122.0090 259° West 3,400 -720 Descending FlightAware
14:03 37.5840 -122.0470 296° West 3,300 -660 Descending FlightAware
14:03 37.6090 -122.0780 316° Northwest 2,600 -840 Descending FlightAware
14:04 37.6360 -122.1150 313° West 1,800 -720 Descending FlightAware
14:05 37.6500 -122.1381 313° West 166 191 1,500 -600 Descending Oakland Center
14:06 37.6750 -122.1747 311° West 152 175 800 -720 Descending Oakland Center